Flight Track Log - Related Links

Times and Time Zones

All times are in EDT time to prevent confusion due to time zone crossing. See the SKW5631 flight status page for this flight to view local times or setup timezone preferences in your user account.

Time Position Orientation Groundspeed Altitude Reporting Facility
EDT Latitude Longitude Course Direction KTS MPH feet Rate Location/Type
Thu 10:20:30 PM 37.6333 -122.3667 360° North 152 175 1,400  Level Northern Cal TRACON
Thu 10:21:25 PM 37.6667 -122.3667 360° North 162 186 3,800 2,684 Climbing Northern Cal TRACON
Thu 10:22:24 PM 37.7000 -122.4000 322° Northwest 223 257 6,500 2,723 Climbing Northern Cal TRACON
Thu 10:23:24 PM 37.6500 -122.4500 218° Southwest 254 292 9,200 1,773 Climbing Northern Cal TRACON
Thu 10:24:36 PM 37.5675 -122.4503 180° South 292 336 10,400 1,522 Climbing Oakland Center
Thu 10:25:38 PM 37.5053 -122.3781 137° Southeast 304 350 12,600 2,244 Climbing Oakland Center
Thu 10:26:39 PM 37.4250 -122.2911 139° Southeast 317 365 15,000 2,016 Climbing Oakland Center
Thu 10:27:40 PM 37.3553 -122.2167 140° Southeast 328 377 16,700 1,610 Climbing Oakland Center
Thu 10:28:42 PM 37.2842 -122.1378 139° Southeast 340 391 18,300 1,659 Climbing Oakland Center
Thu 10:29:43 PM 37.2094 -122.0569 139° Southeast 351 404 20,100 1,574 Climbing Oakland Center
Thu 10:30:44 PM 37.1339 -121.9772 140° Southeast 355 409 21,500 1,279 Climbing Oakland Center
Thu 10:31:45 PM 37.0553 -121.8919 139° Southeast 372 428 22,700 1,122 Climbing Oakland Center
Thu 10:32:47 PM 36.9747 -121.8078 140° Southeast 377 434 23,800 1,073 Climbing Oakland Center
Thu 10:33:48 PM 36.8900 -121.7222 141° Southeast 389 448 24,900 1,180 Climbing Oakland Center
Thu 10:34:49 PM 36.7950 -121.6214 140° Southeast 395 455 26,200 1,024 Climbing Oakland Center
Thu 10:35:51 PM 36.7100 -121.5311 140° Southeast 400 460 27,000 390 Climbing Oakland Center
Thu 10:36:52 PM 36.6233 -121.4403 140° Southeast 406 467 27,000  Level Oakland Center
Thu 10:37:53 PM 36.5378 -121.3519 140° Southeast 402 463 27,000  Level Oakland Center
Thu 10:38:55 PM 36.4544 -121.2619 139° Southeast 398 458 27,000  Level Oakland Center
Thu 10:39:56 PM 36.3694 -121.1728 140° Southeast 399 459 27,000  Level Oakland Center
Thu 10:40:57 PM 36.2850 -121.0858 140° Southeast 398 458 27,000  Level Oakland Center
Thu 10:41:58 PM 36.1839 -120.9800 140° Southeast 397 457 27,000  Level Oakland Center
Thu 10:43:00 PM 36.1000 -120.8919 140° Southeast 396 456 27,000  Level Oakland Center
Thu 10:44:01 PM 36.0167 -120.8053 140° Southeast 394 453 27,000  Level Oakland Center
Thu 10:45:02 PM 35.9328 -120.7189 140° Southeast 392 451 27,000  Level Oakland Center
Thu 10:46:03 PM 35.8492 -120.6328 140° Southeast 392 451 27,000  Level Oakland Center
Thu 10:47:05 PM 35.7642 -120.5458 140° Southeast 394 453 27,000  Level Oakland Center
Thu 10:48:06 PM 35.6808 -120.4597 140° Southeast 393 452 27,000  Level Oakland Center
Thu 10:49:07 PM 35.5967 -120.3742 140° Southeast 391 450 27,000 -439 Level Oakland Center
Thu 10:50:09 PM 35.5025 -120.2792 141° Southeast 382 440 26,100 -919 Descending Los Angeles Center
Thu 10:51:11 PM 35.4242 -120.1992 140° Southeast 371 427 25,100 -968 Descending Los Angeles Center
Thu 10:52:13 PM 35.3450 -120.1183 140° Southeast 369 425 24,100 -919 Descending Los Angeles Center
Thu 10:53:15 PM 35.2722 -120.0447 140° Southeast 370 426 23,200 -1,024 Descending Los Angeles Center
Thu 10:54:16 PM 35.1769 -119.9494 141° Southeast 369 425 22,000 -1,073 Descending Los Angeles Center
Thu 10:55:18 PM 35.0983 -119.8703 141° Southeast 366 421 21,000 -968 Descending Los Angeles Center
Thu 10:56:20 PM 35.0300 -119.7814 133° Southeast 362 417 20,000 -976 Descending Los Angeles Center
Thu 10:57:21 PM 34.9664 -119.6933 131° Southeast 352 405 19,000 -1,024 Descending Los Angeles Center
Thu 10:58:23 PM 34.9011 -119.6064 132° Southeast 348 400 17,900 -1,016 Descending Los Angeles Center
Thu 10:59:25 PM 34.8372 -119.5200 132° Southeast 344 396 16,900 -976 Descending Los Angeles Center
Thu 11:00:26 PM 34.7742 -119.4381 133° Southeast 336 387 15,900 -1,073 Descending Los Angeles Center
Thu 11:01:28 PM 34.7006 -119.3383 132° Southeast 332 382 14,700 -1,065 Descending Los Angeles Center
Thu 11:02:30 PM 34.6389 -119.2564 132° Southeast 329 379 13,700 -919 Descending Los Angeles Center
Thu 11:03:32 PM 34.5842 -119.1833 132° Southeast 325 374 12,800 -927 Descending Los Angeles Center
Thu 11:04:33 PM 34.5233 -119.1036 133° Southeast 324 373 11,800 -1,073 Descending Los Angeles Center
Thu 11:05:35 PM 34.4522 -119.0100 133° Southeast 314 361 10,600 -1,210 Descending Los Angeles Center
Thu 11:06:37 PM 34.3964 -118.9328 131° Southeast 306 352 9,300 -1,317 Descending Los Angeles Center
Thu 11:07:38 PM 34.3347 -118.8675 139° Southeast 295 339 7,900 -1,317 Descending Los Angeles Center
Thu 11:08:40 PM 34.2639 -118.8208 151° Southeast 288 331 6,600 -774 Descending Los Angeles Center
Thu 11:09:42 PM 34.2089 -118.7750 145° Southeast 247 284 6,300 -758 Descending Los Angeles Center
Thu 11:11:42 PM 34.2000 -118.6500 95° East 174 200 4,300 -900 Descending Southern California TRACON
Thu 11:12:42 PM 34.2000 -118.5833 90° East 164 189 3,600 -650 Descending Southern California TRACON
Thu 11:13:42 PM 34.2000 -118.5333 90° East 164 189 3,000 -500 Descending Southern California TRACON
Thu 11:14:42 PM 34.2000 -118.4833 90° East 152 175 2,600 -579 Descending Southern California TRACON
Thu 11:15:36 PM 34.2000 -118.4333 90° East 145 167 1,900 -762 Descending Southern California TRACON
Thu 11:16:48 PM 34.2000 -118.3833 90° East 140 161 1,000 -750 Descending Southern California TRACON

Login

Don't have an account? Register now (free) for customized features, flight alerts, and more!